createdAt,value
2022-10-19T00:00:06.774Z,41.09
2022-10-19T00:00:36.891Z,41.03
2022-10-19T00:01:06.999Z,41.01
2022-10-19T00:01:37.160Z,41.00
2022-10-19T00:02:07.216Z,41.04
2022-10-19T00:02:37.248Z,41.03
2022-10-19T00:03:07.237Z,40.99
2022-10-19T00:03:37.421Z,41.00
2022-10-19T00:04:08.798Z,40.99
2022-10-19T00:04:37.474Z,41.03
2022-10-19T00:05:07.585Z,41.03
2022-10-19T00:05:37.693Z,40.99
2022-10-19T00:06:07.806Z,40.99
2022-10-19T00:06:37.915Z,40.99
2022-10-19T00:07:08.031Z,41.00
2022-10-19T00:07:38.151Z,41.01
2022-10-19T00:08:08.141Z,41.01
2022-10-19T00:08:38.250Z,41.03
2022-10-19T00:09:08.365Z,40.97
2022-10-19T00:09:38.473Z,40.96
2022-10-19T00:10:08.591Z,40.97
2022-10-19T00:10:38.725Z,40.97
2022-10-19T00:11:08.815Z,41.00
2022-10-19T00:11:38.921Z,41.00
2022-10-19T00:12:09.033Z,40.97
2022-10-19T00:12:39.233Z,40.97
2022-10-19T00:13:09.254Z,41.01
2022-10-19T00:13:39.366Z,40.94
2022-10-19T00:14:09.476Z,40.97
2022-10-19T00:14:39.588Z,41.03
2022-10-19T00:15:09.704Z,40.96
2022-10-19T00:15:39.813Z,40.99
2022-10-19T00:16:11.434Z,40.97
2022-10-19T00:16:39.945Z,40.97
2022-10-19T00:17:10.055Z,40.97
2022-10-19T00:17:40.176Z,40.93
2022-10-19T00:18:10.165Z,40.96
2022-10-19T00:18:40.275Z,40.99
2022-10-19T00:19:10.390Z,41.00
2022-10-19T00:19:40.504Z,41.00
2022-10-19T00:20:10.611Z,40.99
2022-10-19T00:20:40.726Z,40.96
2022-10-19T00:21:10.841Z,40.94
2022-10-19T00:21:41.022Z,40.97
2022-10-19T00:22:13.178Z,40.95
2022-10-19T00:22:41.041Z,40.97
2022-10-19T00:23:11.050Z,41.00
2022-10-19T00:23:41.039Z,40.97
2022-10-19T00:24:11.147Z,40.93
2022-10-19T00:24:41.260Z,40.93
2022-10-19T00:25:11.369Z,40.91
2022-10-19T00:25:41.502Z,40.94
2022-10-19T00:26:11.596Z,40.99
2022-10-19T00:26:41.707Z,40.96
2022-10-19T00:27:11.823Z,40.97
2022-10-19T00:27:41.933Z,40.99
2022-10-19T00:28:12.068Z,40.94
2022-10-19T00:28:42.115Z,40.94
2022-10-19T00:29:12.206Z,40.97
2022-10-19T00:29:42.179Z,40.93
2022-10-19T00:30:12.296Z,40.88
2022-10-19T00:30:42.434Z,40.97
2022-10-19T00:31:12.427Z,40.93
2022-10-19T00:31:42.550Z,40.90
2022-10-19T00:32:12.653Z,40.90
2022-10-19T00:32:42.768Z,40.92
2022-10-19T00:33:12.910Z,40.90
2022-10-19T00:33:42.891Z,40.95
2022-10-19T00:34:13.004Z,40.91
2022-10-19T00:34:43.116Z,40.94
2022-10-19T00:35:13.226Z,40.90
2022-10-19T00:35:43.340Z,40.93
2022-10-19T00:36:13.449Z,40.94
2022-10-19T00:36:43.558Z,40.94
2022-10-19T00:37:13.672Z,40.90
2022-10-19T00:37:43.781Z,40.93
2022-10-19T00:38:14.001Z,40.90
2022-10-19T00:38:43.982Z,40.94
2022-10-19T00:39:14.101Z,40.93
2022-10-19T00:39:44.126Z,40.88
2022-10-19T00:40:14.099Z,40.88
2022-10-19T00:40:44.232Z,40.93
2022-10-19T00:41:14.328Z,40.88
2022-10-19T00:41:44.436Z,40.90
2022-10-19T00:42:14.548Z,40.91
2022-10-19T00:42:44.663Z,40.91
2022-10-19T00:43:14.780Z,40.90
2022-10-19T00:43:44.771Z,40.87
2022-10-19T00:44:14.883Z,40.90
2022-10-19T00:44:44.998Z,40.94
2022-10-19T00:45:15.113Z,40.90
2022-10-19T00:45:45.223Z,40.95
2022-10-19T00:46:15.343Z,40.88
2022-10-19T00:46:45.456Z,40.85
2022-10-19T00:47:15.570Z,40.88
2022-10-19T00:47:45.682Z,40.95
2022-10-19T00:48:15.809Z,40.91
2022-10-19T00:48:45.958Z,40.93
2022-10-19T00:49:15.907Z,40.93
2022-10-19T00:49:45.982Z,40.87
2022-10-19T00:50:16.057Z,40.88
2022-10-19T00:50:46.128Z,40.91
2022-10-19T00:51:16.202Z,40.88
2022-10-19T00:51:46.292Z,40.80
2022-10-19T00:52:16.362Z,40.90
2022-10-19T00:52:46.443Z,40.90
2022-10-19T00:53:16.532Z,40.87
2022-10-19T00:53:46.598Z,40.87
2022-10-19T00:54:16.677Z,40.88
2022-10-19T00:54:46.749Z,40.88
2022-10-19T00:55:16.837Z,40.84
2022-10-19T00:55:46.936Z,40.90
2022-10-19T00:56:16.991Z,40.85
2022-10-19T00:56:47.068Z,40.84
2022-10-19T00:57:17.164Z,40.85
2022-10-19T00:57:47.266Z,40.85
2022-10-19T00:58:17.331Z,40.84
2022-10-19T00:58:47.435Z,40.82
2022-10-19T00:59:17.548Z,40.84
2022-10-19T00:59:47.659Z,40.81
2022-10-19T01:00:17.770Z,40.81
2022-10-19T01:00:48.002Z,40.84
2022-10-19T01:01:18.047Z,40.79
2022-10-19T01:01:47.888Z,40.85
2022-10-19T01:02:18.018Z,40.85
2022-10-19T01:02:48.009Z,40.85
2022-10-19T01:03:18.121Z,40.87
2022-10-19T01:03:48.232Z,40.84
2022-10-19T01:04:18.345Z,40.84
2022-10-19T01:04:48.464Z,40.84
2022-10-19T01:05:18.568Z,40.90
2022-10-19T01:05:48.685Z,40.85
2022-10-19T01:06:18.797Z,40.85
2022-10-19T01:06:48.909Z,40.89
2022-10-19T01:07:19.037Z,40.84
2022-10-19T01:07:49.143Z,40.85
2022-10-19T01:08:19.261Z,40.84
2022-10-19T01:08:49.368Z,40.85
2022-10-19T01:09:19.480Z,40.81
2022-10-19T01:09:49.591Z,40.84
2022-10-19T01:10:19.702Z,40.87
2022-10-19T01:10:49.833Z,40.82
2022-10-19T01:11:19.924Z,40.77
2022-10-19T01:11:50.052Z,40.81
2022-10-19T01:12:20.166Z,40.81
2022-10-19T01:12:50.156Z,40.82
2022-10-19T01:13:20.293Z,40.84
2022-10-19T01:13:50.284Z,40.87
2022-10-19T01:14:20.396Z,40.82
2022-10-19T01:14:50.510Z,40.84
2022-10-19T01:15:20.625Z,40.88
2022-10-19T01:15:50.669Z,40.84
2022-10-19T01:16:20.654Z,40.82
2022-10-19T01:16:50.765Z,40.78
2022-10-19T01:17:20.875Z,40.79
2022-10-19T01:17:50.991Z,40.84
2022-10-19T01:18:21.108Z,40.80
2022-10-19T01:18:51.220Z,40.78
2022-10-19T01:19:21.339Z,40.78
2022-10-19T01:19:51.447Z,40.80
2022-10-19T01:20:21.557Z,40.77
2022-10-19T01:20:51.669Z,40.82
2022-10-19T01:21:21.777Z,40.75
2022-10-19T01:21:51.893Z,40.77
2022-10-19T01:22:22.003Z,40.78
2022-10-19T01:22:52.121Z,40.78
2022-10-19T01:23:22.252Z,40.78
2022-10-19T01:23:52.239Z,40.74
2022-10-19T01:24:22.348Z,40.77
2022-10-19T01:24:52.473Z,40.77
2022-10-19T01:25:22.577Z,40.77
2022-10-19T01:25:52.715Z,40.73
2022-10-19T01:26:22.804Z,40.77
2022-10-19T01:26:52.912Z,40.77
2022-10-19T01:27:23.027Z,40.72
2022-10-19T01:27:53.135Z,40.77
2022-10-19T01:28:23.250Z,40.75
2022-10-19T01:28:53.285Z,40.72
2022-10-19T01:29:23.241Z,40.72
2022-10-19T01:29:53.361Z,40.77
2022-10-19T01:30:23.472Z,40.73
2022-10-19T01:30:53.594Z,40.73
2022-10-19T01:31:23.701Z,40.72
2022-10-19T01:31:53.808Z,40.73
2022-10-19T01:32:23.918Z,40.71
2022-10-19T01:32:54.037Z,40.69
2022-10-19T01:33:24.154Z,40.78
2022-10-19T01:33:54.231Z,40.73
2022-10-19T01:34:24.203Z,40.72
2022-10-19T01:34:54.312Z,40.73
2022-10-19T01:35:24.426Z,40.73
2022-10-19T01:35:54.541Z,40.72
2022-10-19T01:36:24.660Z,40.72
2022-10-19T01:36:54.769Z,40.73
2022-10-19T01:37:24.937Z,40.72
2022-10-19T01:37:54.923Z,40.69
2022-10-19T01:38:25.035Z,40.69
2022-10-19T01:38:55.145Z,40.75
2022-10-19T01:39:25.262Z,40.75
2022-10-19T01:39:55.372Z,40.75
2022-10-19T01:40:25.485Z,40.68
2022-10-19T01:40:55.624Z,40.71
2022-10-19T01:41:25.714Z,40.72
2022-10-19T01:41:55.822Z,40.70
2022-10-19T01:42:25.940Z,40.77
2022-10-19T01:42:56.053Z,40.75
2022-10-19T01:43:26.165Z,40.73
2022-10-19T01:43:56.276Z,40.69
2022-10-19T01:44:26.391Z,40.70
2022-10-19T01:44:56.498Z,40.67
2022-10-19T01:45:26.612Z,40.70
2022-10-19T01:45:56.722Z,40.70
2022-10-19T01:46:26.835Z,40.75
2022-10-19T01:46:56.947Z,40.77
2022-10-19T01:47:27.261Z,40.70
2022-10-19T01:47:57.126Z,40.76
2022-10-19T01:48:27.232Z,40.73
2022-10-19T01:48:57.304Z,40.69
2022-10-19T01:49:27.377Z,40.72
2022-10-19T01:49:57.452Z,40.71
2022-10-19T01:50:27.530Z,40.73
2022-10-19T01:50:57.600Z,40.66
2022-10-19T01:51:27.676Z,40.72
2022-10-19T01:52:27.791Z,40.70
2022-10-19T01:52:57.877Z,40.72
2022-10-19T01:53:27.989Z,40.65
2022-10-19T01:53:58.071Z,40.72
2022-10-19T01:54:28.144Z,40.69
2022-10-19T01:54:58.219Z,40.74
2022-10-19T01:55:28.294Z,40.70
2022-10-19T01:55:58.367Z,40.72
2022-10-19T01:56:28.464Z,40.70
2022-10-19T01:56:58.516Z,40.72
2022-10-19T01:57:28.610Z,40.72
2022-10-19T01:57:58.692Z,40.69
2022-10-19T01:58:28.766Z,40.66
2022-10-19T01:58:58.876Z,40.76
2022-10-19T01:59:28.991Z,40.72
2022-10-19T01:59:59.098Z,40.64
2022-10-19T02:00:29.222Z,40.69
2022-10-19T02:00:59.493Z,40.67
2022-10-19T02:01:29.417Z,40.66
2022-10-19T02:01:59.529Z,40.70
2022-10-19T02:02:29.656Z,40.73
2022-10-19T02:02:59.643Z,40.69
2022-10-19T02:03:29.753Z,40.68
2022-10-19T02:03:59.864Z,40.66
2022-10-19T02:04:29.981Z,40.72
2022-10-19T02:05:00.091Z,40.69
2022-10-19T02:05:30.205Z,40.72
2022-10-19T02:06:00.316Z,40.71
2022-10-19T02:06:30.424Z,40.66
2022-10-19T02:07:00.537Z,40.63
2022-10-19T02:07:30.662Z,40.69
2022-10-19T02:08:00.774Z,40.63
2022-10-19T02:08:30.892Z,40.69
2022-10-19T02:09:01.002Z,40.67
2022-10-19T02:09:31.107Z,40.64
2022-10-19T02:10:01.306Z,40.67
2022-10-19T02:10:31.294Z,40.67
2022-10-19T02:11:01.407Z,40.65
2022-10-19T02:11:31.544Z,40.64
2022-10-19T02:12:01.645Z,40.64
2022-10-19T02:12:32.122Z,40.70
2022-10-19T02:13:01.818Z,40.70
2022-10-19T02:13:31.867Z,40.60
2022-10-19T02:14:01.983Z,40.67
2022-10-19T02:14:32.095Z,40.70
2022-10-19T02:15:02.213Z,40.64
2022-10-19T02:15:32.315Z,40.64
2022-10-19T02:16:02.431Z,40.67
2022-10-19T02:16:32.545Z,40.64
2022-10-19T02:17:02.545Z,40.66
2022-10-19T02:17:32.652Z,40.66
2022-10-19T02:18:02.767Z,40.67
2022-10-19T02:18:32.881Z,40.64
2022-10-19T02:19:02.985Z,40.63
2022-10-19T02:19:33.096Z,40.68
2022-10-19T02:20:03.207Z,40.60
2022-10-19T02:20:33.316Z,40.63
2022-10-19T02:21:03.450Z,40.63
2022-10-19T02:21:33.547Z,40.63
2022-10-19T02:22:03.556Z,40.64
2022-10-19T02:22:34.024Z,40.67
2022-10-19T02:23:03.757Z,40.61
2022-10-19T02:23:33.867Z,40.58
2022-10-19T02:24:03.976Z,40.66
2022-10-19T02:24:34.087Z,40.63
2022-10-19T02:25:04.200Z,40.63
2022-10-19T02:25:34.312Z,40.61
2022-10-19T02:26:04.423Z,40.60
2022-10-19T02:26:34.563Z,40.63
2022-10-19T02:27:04.643Z,40.63
2022-10-19T02:27:34.758Z,40.60
2022-10-19T02:28:04.873Z,40.60
2022-10-19T02:28:34.993Z,40.64
2022-10-19T02:29:05.127Z,40.64
2022-10-19T02:29:35.125Z,40.61
2022-10-19T02:30:05.236Z,40.66
2022-10-19T02:30:35.353Z,40.61
2022-10-19T02:31:05.461Z,40.61
2022-10-19T02:31:35.573Z,40.58
2022-10-19T02:32:05.688Z,40.60
2022-10-19T02:32:35.934Z,40.61
2022-10-19T02:33:05.860Z,40.58
2022-10-19T02:33:35.969Z,40.61
2022-10-19T02:34:06.081Z,40.57
2022-10-19T02:34:36.197Z,40.58
2022-10-19T02:35:06.306Z,40.60
2022-10-19T02:35:36.422Z,40.64
2022-10-19T02:36:06.537Z,40.58
2022-10-19T02:36:36.646Z,40.60
2022-10-19T02:37:06.762Z,40.57
2022-10-19T02:38:06.950Z,40.58
2022-10-19T02:38:37.064Z,40.58
2022-10-19T02:39:07.178Z,40.58
2022-10-19T02:39:37.295Z,40.63
2022-10-19T02:40:07.409Z,40.55
2022-10-19T02:40:37.514Z,40.57
2022-10-19T02:41:07.631Z,40.52
2022-10-19T02:41:37.764Z,40.61
2022-10-19T02:42:07.858Z,40.55
2022-10-19T02:42:37.978Z,40.55
2022-10-19T02:43:08.088Z,40.54
2022-10-19T02:43:38.197Z,40.57
2022-10-19T02:44:08.313Z,40.54
2022-10-19T02:44:38.425Z,40.58
2022-10-19T02:45:08.417Z,40.54
2022-10-19T02:45:38.530Z,40.54
2022-10-19T02:46:08.645Z,40.51
2022-10-19T02:47:08.828Z,40.57
2022-10-19T02:47:38.949Z,40.58
2022-10-19T02:48:09.067Z,40.54
2022-10-19T02:48:39.148Z,40.54
2022-10-19T02:49:09.225Z,40.54
2022-10-19T02:49:39.301Z,40.53
2022-10-19T02:50:09.377Z,40.51
2022-10-19T02:50:39.449Z,40.51
2022-10-19T02:51:09.528Z,40.51
2022-10-19T02:51:39.605Z,40.54
2022-10-19T02:52:09.680Z,40.55
2022-10-19T02:52:39.772Z,40.54
2022-10-19T02:53:09.852Z,40.50
2022-10-19T02:53:39.924Z,40.54
2022-10-19T02:54:09.997Z,40.52
2022-10-19T02:54:40.074Z,40.52
2022-10-19T02:55:10.160Z,40.55
2022-10-19T02:56:10.243Z,40.60
2022-10-19T02:56:40.338Z,40.54
2022-10-19T02:57:10.395Z,40.50
2022-10-19T02:57:40.468Z,40.48
2022-10-19T02:58:10.541Z,40.52
2022-10-19T02:58:40.639Z,40.57
2022-10-19T02:59:10.748Z,40.51
2022-10-19T02:59:40.864Z,40.51
2022-10-19T03:00:10.983Z,40.54
2022-10-19T03:00:41.193Z,40.51
2022-10-19T03:01:11.346Z,40.49
2022-10-19T03:01:41.230Z,40.50
2022-10-19T03:02:11.342Z,40.49
2022-10-19T03:02:41.457Z,40.51
2022-10-19T03:03:11.569Z,40.55
2022-10-19T03:03:41.686Z,40.46
2022-10-19T03:04:11.799Z,40.46
2022-10-19T03:04:41.957Z,40.52
2022-10-19T03:05:11.964Z,40.52
2022-10-19T03:05:42.074Z,40.46
2022-10-19T03:06:12.189Z,40.52
2022-10-19T03:06:42.301Z,40.46
2022-10-19T03:07:12.412Z,40.49
2022-10-19T03:07:42.537Z,40.51
2022-10-19T03:08:12.520Z,40.50
2022-10-19T03:08:42.636Z,40.45
2022-10-19T03:09:12.747Z,40.48
2022-10-19T03:09:42.859Z,40.44
2022-10-19T03:10:12.971Z,40.45
2022-10-19T03:10:43.086Z,40.46
2022-10-19T03:11:13.198Z,40.51
2022-10-19T03:11:43.335Z,40.48
2022-10-19T03:12:13.423Z,40.52
2022-10-19T03:12:43.543Z,40.51
2022-10-19T03:13:13.533Z,40.42
2022-10-19T03:13:43.702Z,40.45
2022-10-19T03:14:13.698Z,40.47
2022-10-19T03:14:43.815Z,40.46
2022-10-19T03:15:13.928Z,40.46
2022-10-19T03:15:43.921Z,40.48
2022-10-19T03:16:14.031Z,40.44
2022-10-19T03:16:44.146Z,40.46
2022-10-19T03:17:14.257Z,40.42
2022-10-19T03:17:44.371Z,40.43
2022-10-19T03:18:14.493Z,40.43
2022-10-19T03:18:44.595Z,40.41
2022-10-19T03:19:14.708Z,40.48
2022-10-19T03:19:44.824Z,40.43
2022-10-19T03:20:14.934Z,40.45
2022-10-19T03:20:45.050Z,40.43
2022-10-19T03:21:15.161Z,40.41
2022-10-19T03:21:45.273Z,40.43
2022-10-19T03:22:15.267Z,40.46
2022-10-19T03:22:45.417Z,40.48
2022-10-19T03:23:15.396Z,40.44
2022-10-19T03:23:45.386Z,40.42
2022-10-19T03:24:15.492Z,40.46
2022-10-19T03:24:45.603Z,40.43
2022-10-19T03:25:15.716Z,40.42
2022-10-19T03:25:45.830Z,40.42
2022-10-19T03:26:15.943Z,40.43
2022-10-19T03:26:46.055Z,40.46
2022-10-19T03:27:16.188Z,40.42
2022-10-19T03:27:46.295Z,40.43
2022-10-19T03:28:16.283Z,40.43
2022-10-19T03:28:46.349Z,40.42
2022-10-19T03:29:16.355Z,40.42
2022-10-19T03:29:46.471Z,40.42
2022-10-19T03:30:16.586Z,40.39
2022-10-19T03:30:46.578Z,40.39
2022-10-19T03:31:16.692Z,40.42
2022-10-19T03:31:46.821Z,40.40
2022-10-19T03:32:16.929Z,40.40
2022-10-19T03:32:47.046Z,40.42
2022-10-19T03:33:17.231Z,40.39
2022-10-19T03:33:47.194Z,40.39
2022-10-19T03:34:17.303Z,40.39
2022-10-19T03:34:47.421Z,40.39
2022-10-19T03:35:17.533Z,40.44
2022-10-19T03:35:47.647Z,40.36
2022-10-19T03:36:17.759Z,40.35
2022-10-19T03:36:47.875Z,40.40
2022-10-19T03:37:17.986Z,40.38
2022-10-19T03:37:48.106Z,40.41
2022-10-19T03:38:18.090Z,40.41
2022-10-19T03:38:48.206Z,40.40
2022-10-19T03:39:18.318Z,40.38
2022-10-19T03:39:48.430Z,40.38
2022-10-19T03:40:18.539Z,40.39
2022-10-19T03:40:48.661Z,40.41
2022-10-19T03:41:18.771Z,40.41
2022-10-19T03:41:48.887Z,40.40
2022-10-19T03:42:19.022Z,40.40
2022-10-19T03:42:49.117Z,40.38
2022-10-19T03:43:19.228Z,40.42
2022-10-19T03:43:49.415Z,40.36
2022-10-19T03:44:19.405Z,40.34
2022-10-19T03:44:49.519Z,40.39
2022-10-19T03:45:19.632Z,40.33
2022-10-19T03:45:49.744Z,40.38
2022-10-19T03:46:19.739Z,40.39
2022-10-19T03:46:49.850Z,40.36
2022-10-19T03:47:19.966Z,40.36
2022-10-19T03:47:50.082Z,40.33
2022-10-19T03:48:20.193Z,40.33
2022-10-19T03:48:50.269Z,40.32
2022-10-19T03:49:20.344Z,40.36
2022-10-19T03:49:50.420Z,40.29
2022-10-19T03:50:20.492Z,40.35
2022-10-19T03:50:50.567Z,40.30
2022-10-19T03:51:20.642Z,40.30
2022-10-19T03:51:50.712Z,40.28
2022-10-19T03:52:20.791Z,40.34
2022-10-19T03:52:50.931Z,40.31
2022-10-19T03:53:20.978Z,40.37
2022-10-19T03:53:51.054Z,40.39
2022-10-19T03:54:23.677Z,40.40
2022-10-19T03:54:51.231Z,40.39
2022-10-19T03:55:21.310Z,40.39
2022-10-19T03:55:51.384Z,40.35
2022-10-19T03:56:21.456Z,40.37
2022-10-19T03:56:51.532Z,40.40
2022-10-19T03:57:21.631Z,40.32
2022-10-19T03:57:51.688Z,40.39
2022-10-19T03:58:21.759Z,40.33
2022-10-19T03:58:51.877Z,40.37
2022-10-19T03:59:21.985Z,40.40
2022-10-19T03:59:52.100Z,40.46
2022-10-19T04:00:22.213Z,40.56
2022-10-19T04:00:52.359Z,40.49
2022-10-19T04:01:22.437Z,40.50
2022-10-19T04:01:52.425Z,40.55
2022-10-19T04:02:22.528Z,40.52
2022-10-19T04:02:52.695Z,40.62
2022-10-19T04:03:22.737Z,40.68
2022-10-19T04:03:52.750Z,40.71
2022-10-19T04:04:22.745Z,40.67
2022-10-19T04:04:52.853Z,40.62
2022-10-19T04:05:22.844Z,40.62
2022-10-19T04:05:52.960Z,40.61
2022-10-19T04:06:23.071Z,40.57
2022-10-19T04:06:53.192Z,40.58
2022-10-19T04:07:23.300Z,40.50
2022-10-19T04:07:53.413Z,40.48
2022-10-19T04:08:23.523Z,40.48
2022-10-19T04:08:53.629Z,40.48
2022-10-19T04:09:23.745Z,40.48
2022-10-19T04:09:53.853Z,40.45
2022-10-19T04:10:23.966Z,40.39
2022-10-19T04:10:54.078Z,40.39
2022-10-19T04:11:24.225Z,40.38
2022-10-19T04:11:54.198Z,40.35
2022-10-19T04:12:24.337Z,40.32
2022-10-19T04:12:54.430Z,40.37
2022-10-19T04:13:24.545Z,40.37
2022-10-19T04:13:54.656Z,40.34
2022-10-19T04:14:32.664Z,40.28
2022-10-19T04:14:58.042Z,40.29
2022-10-19T04:15:24.786Z,40.28
2022-10-19T04:15:54.898Z,40.31
2022-10-19T04:16:25.007Z,40.27
2022-10-19T04:16:55.122Z,40.30
2022-10-19T04:17:25.234Z,40.33
2022-10-19T04:17:55.345Z,40.27
2022-10-19T04:18:25.460Z,40.27
2022-10-19T04:18:55.576Z,40.24
2022-10-19T04:19:25.571Z,40.21
2022-10-19T04:19:55.689Z,40.15
2022-10-19T04:20:25.794Z,40.21
2022-10-19T04:20:55.908Z,40.21
2022-10-19T04:21:26.019Z,40.15
2022-10-19T04:21:56.128Z,40.15
2022-10-19T04:22:26.243Z,40.18
2022-10-19T04:22:56.357Z,40.14
2022-10-19T04:23:26.467Z,40.09
2022-10-19T04:23:56.580Z,40.15
2022-10-19T04:24:26.687Z,40.17
2022-10-19T04:24:56.803Z,40.31
2022-10-19T04:25:26.913Z,40.19
2022-10-19T04:25:57.026Z,40.21
2022-10-19T04:26:27.143Z,40.29
2022-10-19T04:26:57.265Z,40.29
2022-10-19T04:27:27.391Z,40.34
2022-10-19T04:27:57.488Z,40.30
2022-10-19T04:28:27.628Z,40.31
2022-10-19T04:28:57.700Z,40.35
2022-10-19T04:29:29.989Z,40.35
2022-10-19T04:29:57.751Z,40.40
2022-10-19T04:30:27.864Z,40.46
2022-10-19T04:30:57.980Z,40.75
2022-10-19T04:31:28.093Z,40.72
2022-10-19T04:31:58.208Z,40.78
2022-10-19T04:32:28.324Z,40.68
2022-10-19T04:32:58.446Z,40.65
2022-10-19T04:33:28.428Z,40.70
2022-10-19T04:33:58.535Z,40.72
2022-10-19T04:34:28.656Z,40.76
2022-10-19T04:34:58.780Z,40.82
2022-10-19T04:35:28.765Z,40.89
2022-10-19T04:35:58.879Z,40.92
2022-10-19T04:36:28.991Z,40.95
2022-10-19T04:36:59.111Z,40.94
2022-10-19T04:37:29.219Z,40.82
2022-10-19T04:37:59.344Z,40.74
2022-10-19T04:38:29.330Z,40.72
2022-10-19T04:38:59.439Z,40.71
2022-10-19T04:39:29.554Z,40.65
2022-10-19T04:39:59.668Z,40.64
2022-10-19T04:40:29.778Z,40.60
2022-10-19T04:40:59.894Z,40.55
2022-10-19T04:41:30.059Z,40.57
2022-10-19T04:42:00.041Z,40.50
2022-10-19T04:42:30.176Z,40.44
2022-10-19T04:43:00.271Z,40.38
2022-10-19T04:43:30.261Z,40.40
2022-10-19T04:44:00.373Z,40.33
2022-10-19T04:44:30.489Z,40.28
2022-10-19T04:45:00.606Z,40.31
2022-10-19T04:45:30.722Z,40.33
2022-10-19T04:46:00.830Z,40.34
2022-10-19T04:46:30.946Z,40.35
2022-10-19T04:47:01.059Z,40.45
2022-10-19T04:47:31.314Z,40.45
2022-10-19T04:48:01.235Z,40.53
2022-10-19T04:48:31.328Z,40.41
2022-10-19T04:49:01.405Z,40.51
2022-10-19T04:49:31.478Z,40.50
2022-10-19T04:50:01.578Z,40.48
2022-10-19T04:50:31.627Z,40.36
2022-10-19T04:51:01.700Z,40.44
2022-10-19T04:51:31.774Z,40.57
2022-10-19T04:52:01.850Z,40.45
2022-10-19T04:52:31.938Z,40.52
2022-10-19T04:53:02.045Z,40.42
2022-10-19T04:53:32.121Z,40.52
2022-10-19T04:54:02.202Z,40.52
2022-10-19T04:54:32.266Z,40.48
2022-10-19T04:55:02.339Z,40.53
2022-10-19T04:55:32.412Z,40.44
2022-10-19T04:56:02.503Z,40.42
2022-10-19T04:56:32.712Z,40.38
2022-10-19T04:57:02.645Z,40.35
2022-10-19T04:57:33.103Z,40.35
2022-10-19T04:58:02.857Z,40.27
2022-10-19T04:58:32.935Z,40.27
2022-10-19T04:59:03.044Z,40.24
2022-10-19T04:59:33.174Z,40.30
2022-10-19T05:00:03.195Z,40.17
2022-10-19T05:00:33.312Z,40.15
2022-10-19T05:01:03.360Z,40.19
2022-10-19T05:01:33.394Z,40.15
2022-10-19T05:02:03.509Z,40.12
2022-10-19T05:02:33.641Z,40.12
2022-10-19T05:03:03.670Z,40.13
2022-10-19T05:03:33.668Z,40.05
2022-10-19T05:04:03.780Z,40.06
2022-10-19T05:04:33.908Z,40.07
2022-10-19T05:05:03.983Z,40.03
2022-10-19T05:05:34.023Z,40.04
2022-10-19T05:06:04.051Z,40.06
2022-10-19T05:06:34.074Z,40.04
2022-10-19T05:07:04.099Z,40.04
2022-10-19T05:07:34.415Z,40.04
2022-10-19T05:08:04.134Z,40.04
2022-10-19T05:08:34.146Z,40.04
2022-10-19T05:09:04.273Z,40.04
2022-10-19T05:09:34.265Z,40.03
2022-10-19T05:10:04.379Z,40.02
2022-10-19T05:10:34.493Z,40.05
2022-10-19T05:11:04.615Z,40.01
2022-10-19T05:11:34.737Z,40.01
2022-10-19T05:12:04.743Z,39.94
2022-10-19T05:12:34.738Z,39.95
2022-10-19T05:13:04.789Z,39.86
2022-10-19T05:13:34.878Z,39.85
2022-10-19T05:14:04.991Z,39.85
2022-10-19T05:14:36.788Z,39.81
2022-10-19T05:15:05.149Z,39.83
2022-10-19T05:15:35.262Z,39.83
2022-10-19T05:16:05.370Z,39.83
2022-10-19T05:16:35.506Z,39.77
2022-10-19T05:17:05.527Z,39.79
2022-10-19T05:17:35.920Z,39.73
2022-10-19T05:18:05.585Z,39.73
2022-10-19T05:18:35.572Z,39.69
2022-10-19T05:19:05.569Z,39.72
2022-10-19T05:19:35.697Z,39.70
2022-10-19T05:20:05.685Z,39.64
2022-10-19T05:20:35.797Z,39.62
2022-10-19T05:21:05.911Z,39.66
2022-10-19T05:21:36.038Z,39.64
2022-10-19T05:22:06.047Z,39.62
2022-10-19T05:22:36.163Z,39.59
2022-10-19T05:23:07.274Z,39.64
2022-10-19T05:23:36.159Z,39.58
2022-10-19T05:24:06.295Z,39.57
2022-10-19T05:24:36.277Z,39.58
2022-10-19T05:25:06.274Z,39.60
2022-10-19T05:25:36.386Z,39.63
2022-10-19T05:26:06.496Z,39.57
2022-10-19T05:26:36.611Z,39.55
2022-10-19T05:27:06.719Z,39.61
2022-10-19T05:27:37.170Z,39.54
2022-10-19T05:28:06.868Z,39.54
2022-10-19T05:28:37.085Z,39.57
2022-10-19T05:29:07.112Z,39.55
2022-10-19T05:29:37.071Z,39.60
2022-10-19T05:30:07.177Z,39.58
2022-10-19T05:30:37.292Z,39.55
2022-10-19T05:31:07.463Z,39.54
2022-10-19T05:31:37.451Z,39.51
2022-10-19T05:32:07.562Z,39.50
2022-10-19T05:32:37.671Z,39.52
2022-10-19T05:33:07.786Z,39.46
2022-10-19T05:33:37.899Z,39.43
2022-10-19T05:34:38.092Z,39.46
2022-10-19T05:35:08.203Z,39.44
2022-10-19T05:35:38.314Z,39.40
2022-10-19T05:36:08.428Z,39.39
2022-10-19T05:36:38.544Z,39.46
2022-10-19T05:37:08.656Z,39.41
2022-10-19T05:37:38.660Z,39.38
2022-10-19T05:38:08.775Z,39.35
2022-10-19T05:38:38.887Z,39.38
2022-10-19T05:39:09.007Z,39.38
2022-10-19T05:39:39.105Z,39.32
2022-10-19T05:40:09.217Z,39.35
2022-10-19T05:40:39.345Z,39.28
2022-10-19T05:41:09.327Z,39.27
2022-10-19T05:41:39.469Z,39.32
2022-10-19T05:42:09.453Z,39.22
2022-10-19T05:42:39.567Z,39.24
2022-10-19T05:43:09.679Z,39.20
2022-10-19T05:43:39.819Z,39.15
2022-10-19T05:44:09.907Z,39.14
2022-10-19T05:44:40.055Z,39.18
2022-10-19T05:45:10.131Z,39.13
2022-10-19T05:45:40.247Z,39.05
2022-10-19T05:46:10.370Z,39.05
2022-10-19T05:46:40.476Z,39.02
2022-10-19T05:47:10.587Z,38.78
2022-10-19T05:47:40.705Z,38.82
2022-10-19T05:48:10.694Z,38.94
2022-10-19T05:48:40.776Z,39.01
2022-10-19T05:49:10.852Z,38.69
2022-10-19T05:49:40.927Z,38.99
2022-10-19T05:50:11.005Z,39.00
2022-10-19T05:50:41.091Z,39.01
2022-10-19T05:51:11.160Z,39.10
2022-10-19T05:51:41.244Z,39.05
2022-10-19T05:52:11.313Z,39.13
2022-10-19T05:52:41.397Z,39.11
2022-10-19T05:53:11.472Z,39.09
2022-10-19T05:53:41.544Z,39.11
2022-10-19T05:54:11.617Z,39.14
2022-10-19T05:54:41.689Z,39.15
2022-10-19T05:55:11.760Z,39.13
2022-10-19T05:55:41.835Z,39.09
2022-10-19T05:56:11.905Z,39.05
2022-10-19T05:56:41.983Z,39.00
2022-10-19T05:57:12.056Z,39.01
2022-10-19T05:57:42.138Z,39.03
2022-10-19T05:58:12.213Z,39.03
2022-10-19T05:58:42.342Z,38.98
2022-10-19T05:59:12.423Z,38.89
2022-10-19T05:59:42.539Z,38.89
2022-10-19T06:00:12.678Z,38.88
2022-10-19T06:00:42.774Z,38.85
2022-10-19T06:01:12.877Z,38.88
2022-10-19T06:01:43.061Z,38.82
2022-10-19T06:02:13.120Z,38.85
2022-10-19T06:02:43.084Z,38.81
2022-10-19T06:03:13.069Z,38.81
2022-10-19T06:03:43.182Z,38.74
2022-10-19T06:04:13.332Z,38.79
2022-10-19T06:04:43.302Z,38.62
2022-10-19T06:05:13.412Z,38.74
2022-10-19T06:05:43.530Z,38.78
2022-10-19T06:06:13.520Z,38.72
2022-10-19T06:06:43.638Z,38.77
2022-10-19T06:07:13.818Z,38.79
2022-10-19T06:07:43.790Z,38.77
2022-10-19T06:08:13.991Z,38.72
2022-10-19T06:08:43.949Z,38.73
2022-10-19T06:09:14.058Z,38.73
2022-10-19T06:09:44.170Z,38.69
2022-10-19T06:10:14.287Z,38.76
2022-10-19T06:10:44.400Z,38.73
2022-10-19T06:11:14.531Z,38.73
2022-10-19T06:11:44.621Z,38.73
2022-10-19T06:12:16.228Z,38.78
2022-10-19T06:12:44.818Z,38.75
2022-10-19T06:13:14.924Z,38.71
2022-10-19T06:13:45.062Z,38.82
2022-10-19T06:14:15.150Z,38.58
2022-10-19T06:15:15.375Z,38.73
2022-10-19T06:15:45.484Z,38.87
2022-10-19T06:16:15.592Z,38.88
2022-10-19T06:16:45.738Z,38.91
2022-10-19T06:17:15.708Z,38.91
2022-10-19T06:17:45.847Z,38.93
2022-10-19T06:18:15.834Z,38.95
2022-10-19T06:18:45.952Z,38.97
2022-10-19T06:19:16.064Z,38.91
2022-10-19T06:19:46.177Z,38.95
2022-10-19T06:20:16.292Z,38.97
2022-10-19T06:20:46.404Z,38.97
2022-10-19T06:21:16.526Z,38.94
2022-10-19T06:21:46.514Z,38.95
2022-10-19T06:22:16.727Z,38.94
2022-10-19T06:22:46.635Z,39.00
2022-10-19T06:23:16.634Z,38.96
2022-10-19T06:23:46.630Z,38.96
2022-10-19T06:24:16.730Z,38.94
2022-10-19T06:24:46.842Z,38.93
2022-10-19T06:25:20.178Z,38.90
2022-10-19T06:25:47.065Z,38.87
2022-10-19T06:26:17.175Z,38.86
2022-10-19T06:26:47.295Z,38.84
2022-10-19T06:27:17.459Z,38.84
2022-10-19T06:27:47.496Z,38.92
2022-10-19T06:28:17.454Z,38.86
2022-10-19T06:28:47.563Z,38.82
2022-10-19T06:29:17.700Z,38.84
2022-10-19T06:29:47.785Z,38.81
2022-10-19T06:30:17.921Z,38.79